sensor_id;sensor_type;location;lat;lon;timestamp;P1;durP1;ratioP1;P2;durP2;ratioP2
85081;SDS011;75424;50.762;7.178;2024-03-23T00:55:41;24.90;;;8.50;;
85081;SDS011;75424;50.762;7.178;2024-03-23T00:58:07;22.35;;;8.98;;
85081;SDS011;75424;50.762;7.178;2024-03-23T01:00:32;24.20;;;9.95;;
85081;SDS011;75424;50.762;7.178;2024-03-23T01:02:58;23.27;;;9.60;;
85081;SDS011;75424;50.762;7.178;2024-03-23T01:05:23;26.52;;;9.52;;
85081;SDS011;75424;50.762;7.178;2024-03-23T01:07:48;27.55;;;10.75;;
85081;SDS011;75424;50.762;7.178;2024-03-23T01:10:14;24.40;;;9.80;;
85081;SDS011;75424;50.762;7.178;2024-03-23T01:12:39;26.25;;;10.40;;
85081;SDS011;75424;50.762;7.178;2024-03-23T01:15:04;23.05;;;10.77;;
85081;SDS011;75424;50.762;7.178;2024-03-23T01:17:30;23.80;;;9.68;;
85081;SDS011;75424;50.762;7.178;2024-03-23T01:19:55;25.17;;;11.13;;
85081;SDS011;75424;50.762;7.178;2024-03-23T01:22:21;24.77;;;10.90;;
85081;SDS011;75424;50.762;7.178;2024-03-23T01:24:46;29.55;;;11.50;;
85081;SDS011;75424;50.762;7.178;2024-03-23T01:27:11;29.08;;;11.07;;
85081;SDS011;75424;50.762;7.178;2024-03-23T01:29:37;23.52;;;10.10;;
85081;SDS011;75424;50.762;7.178;2024-03-23T01:32:02;25.48;;;11.07;;
85081;SDS011;75424;50.762;7.178;2024-03-23T01:34:27;33.45;;;11.02;;
85081;SDS011;75424;50.762;7.178;2024-03-23T01:36:53;22.48;;;10.63;;
85081;SDS011;75424;50.762;7.178;2024-03-23T01:39:18;32.95;;;12.25;;
85081;SDS011;75424;50.762;7.178;2024-03-23T01:41:44;30.42;;;12.90;;
85081;SDS011;75424;50.762;7.178;2024-03-23T01:44:09;30.30;;;12.18;;
85081;SDS011;75424;50.762;7.178;2024-03-23T01:46:35;27.35;;;11.77;;
85081;SDS011;75424;50.762;7.178;2024-03-23T01:49:02;23.30;;;11.27;;
85081;SDS011;75424;50.762;7.178;2024-03-23T01:51:28;23.27;;;10.15;;
85081;SDS011;75424;50.762;7.178;2024-03-23T01:53:54;24.35;;;10.40;;
85081;SDS011;75424;50.762;7.178;2024-03-23T01:56:21;21.58;;;10.07;;
85081;SDS011;75424;50.762;7.178;2024-03-23T01:58:47;18.73;;;9.18;;
85081;SDS011;75424;50.762;7.178;2024-03-23T02:01:12;24.60;;;9.88;;
85081;SDS011;75424;50.762;7.178;2024-03-23T02:03:37;21.05;;;8.35;;
85081;SDS011;75424;50.762;7.178;2024-03-23T02:06:03;21.85;;;8.93;;
85081;SDS011;75424;50.762;7.178;2024-03-23T02:08:28;22.13;;;9.48;;
85081;SDS011;75424;50.762;7.178;2024-03-23T02:10:55;18.40;;;8.75;;
85081;SDS011;75424;50.762;7.178;2024-03-23T02:13:21;23.05;;;9.85;;
85081;SDS011;75424;50.762;7.178;2024-03-23T02:15:46;21.92;;;9.85;;
85081;SDS011;75424;50.762;7.178;2024-03-23T02:18:13;15.43;;;6.97;;
85081;SDS011;75424;50.762;7.178;2024-03-23T02:20:38;6.00;;;2.63;;
85081;SDS011;75424;50.762;7.178;2024-03-23T02:23:04;8.27;;;2.92;;
85081;SDS011;75424;50.762;7.178;2024-03-23T02:25:32;6.97;;;2.40;;
85081;SDS011;75424;50.762;7.178;2024-03-23T02:27:59;4.53;;;2.72;;
85081;SDS011;75424;50.762;7.178;2024-03-23T02:30:25;5.65;;;2.72;;
85081;SDS011;75424;50.762;7.178;2024-03-23T02:32:50;5.82;;;2.90;;
85081;SDS011;75424;50.762;7.178;2024-03-23T02:35:16;6.18;;;3.47;;
85081;SDS011;75424;50.762;7.178;2024-03-23T02:37:41;8.20;;;3.30;;
85081;SDS011;75424;50.762;7.178;2024-03-23T02:40:07;7.43;;;3.03;;
85081;SDS011;75424;50.762;7.178;2024-03-23T02:42:33;9.15;;;3.42;;
85081;SDS011;75424;50.762;7.178;2024-03-23T02:44:58;5.55;;;2.95;;
85081;SDS011;75424;50.762;7.178;2024-03-23T02:47:24;11.05;;;4.10;;
85081;SDS011;75424;50.762;7.178;2024-03-23T02:49:50;7.50;;;3.90;;
85081;SDS011;75424;50.762;7.178;2024-03-23T02:52:15;10.45;;;4.28;;
85081;SDS011;75424;50.762;7.178;2024-03-23T02:54:40;9.07;;;3.60;;
85081;SDS011;75424;50.762;7.178;2024-03-23T02:57:09;9.15;;;4.50;;
85081;SDS011;75424;50.762;7.178;2024-03-23T02:59:35;8.13;;;4.03;;
85081;SDS011;75424;50.762;7.178;2024-03-23T03:02:00;9.63;;;4.38;;
85081;SDS011;75424;50.762;7.178;2024-03-23T03:04:26;8.68;;;4.65;;
85081;SDS011;75424;50.762;7.178;2024-03-23T03:06:51;8.35;;;4.22;;
85081;SDS011;75424;50.762;7.178;2024-03-23T03:09:17;7.38;;;3.30;;
85081;SDS011;75424;50.762;7.178;2024-03-23T03:11:42;7.07;;;2.72;;
85081;SDS011;75424;50.762;7.178;2024-03-23T03:14:07;6.10;;;3.00;;
85081;SDS011;75424;50.762;7.178;2024-03-23T03:16:33;6.00;;;2.47;;
85081;SDS011;75424;50.762;7.178;2024-03-23T03:18:58;6.53;;;3.05;;
85081;SDS011;75424;50.762;7.178;2024-03-23T03:21:24;6.47;;;3.33;;
85081;SDS011;75424;50.762;7.178;2024-03-23T03:23:49;10.48;;;4.43;;
85081;SDS011;75424;50.762;7.178;2024-03-23T03:26:16;10.52;;;4.63;;
85081;SDS011;75424;50.762;7.178;2024-03-23T03:28:41;10.38;;;5.13;;
85081;SDS011;75424;50.762;7.178;2024-03-23T03:31:08;8.82;;;3.17;;
85081;SDS011;75424;50.762;7.178;2024-03-23T03:33:33;12.73;;;3.83;;
85081;SDS011;75424;50.762;7.178;2024-03-23T03:35:58;5.13;;;2.23;;
85081;SDS011;75424;50.762;7.178;2024-03-23T03:38:24;8.65;;;2.83;;
85081;SDS011;75424;50.762;7.178;2024-03-23T03:40:49;9.10;;;3.17;;
85081;SDS011;75424;50.762;7.178;2024-03-23T03:43:15;9.02;;;3.08;;
85081;SDS011;75424;50.762;7.178;2024-03-23T03:45:40;5.65;;;2.25;;
85081;SDS011;75424;50.762;7.178;2024-03-23T03:48:05;5.25;;;1.77;;
85081;SDS011;75424;50.762;7.178;2024-03-23T03:50:31;6.00;;;2.83;;
85081;SDS011;75424;50.762;7.178;2024-03-23T03:52:56;4.85;;;2.28;;
85081;SDS011;75424;50.762;7.178;2024-03-23T03:55:22;7.57;;;2.50;;
85081;SDS011;75424;50.762;7.178;2024-03-23T03:57:47;7.00;;;2.25;;
85081;SDS011;75424;50.762;7.178;2024-03-23T04:00:12;8.82;;;2.85;;
85081;SDS011;75424;50.762;7.178;2024-03-23T04:02:38;5.18;;;3.00;;
85081;SDS011;75424;50.762;7.178;2024-03-23T04:05:04;7.70;;;2.50;;
85081;SDS011;75424;50.762;7.178;2024-03-23T04:07:30;4.88;;;2.35;;
85081;SDS011;75424;50.762;7.178;2024-03-23T04:09:55;6.40;;;2.55;;
85081;SDS011;75424;50.762;7.178;2024-03-23T04:12:20;7.90;;;3.25;;
85081;SDS011;75424;50.762;7.178;2024-03-23T04:14:45;8.82;;;3.03;;
85081;SDS011;75424;50.762;7.178;2024-03-23T04:17:11;8.95;;;2.67;;
85081;SDS011;75424;50.762;7.178;2024-03-23T04:19:37;11.65;;;3.22;;
85081;SDS011;75424;50.762;7.178;2024-03-23T04:22:02;8.32;;;2.63;;
85081;SDS011;75424;50.762;7.178;2024-03-23T04:24:28;8.55;;;3.10;;
85081;SDS011;75424;50.762;7.178;2024-03-23T04:26:54;9.85;;;3.13;;
85081;SDS011;75424;50.762;7.178;2024-03-23T04:29:19;6.32;;;2.55;;
85081;SDS011;75424;50.762;7.178;2024-03-23T04:31:45;6.30;;;2.65;;
85081;SDS011;75424;50.762;7.178;2024-03-23T04:34:10;5.90;;;2.63;;
85081;SDS011;75424;50.762;7.178;2024-03-23T04:36:36;7.15;;;2.90;;
85081;SDS011;75424;50.762;7.178;2024-03-23T04:39:01;6.95;;;2.55;;
85081;SDS011;75424;50.762;7.178;2024-03-23T04:41:27;6.43;;;2.63;;
85081;SDS011;75424;50.762;7.178;2024-03-23T04:43:52;9.63;;;2.67;;
85081;SDS011;75424;50.762;7.178;2024-03-23T04:46:18;7.90;;;2.75;;
85081;SDS011;75424;50.762;7.178;2024-03-23T04:48:43;5.88;;;2.40;;
85081;SDS011;75424;50.762;7.178;2024-03-23T04:51:19;10.25;;;3.30;;
85081;SDS011;75424;50.762;7.178;2024-03-23T04:53:46;9.23;;;2.55;;
85081;SDS011;75424;50.762;7.178;2024-03-23T04:56:12;7.60;;;3.65;;
85081;SDS011;75424;50.762;7.178;2024-03-23T04:58:38;6.15;;;2.55;;
85081;SDS011;75424;50.762;7.178;2024-03-23T05:01:03;4.47;;;2.33;;
85081;SDS011;75424;50.762;7.178;2024-03-23T05:03:29;11.63;;;2.67;;
85081;SDS011;75424;50.762;7.178;2024-03-23T05:05:54;5.03;;;3.20;;
85081;SDS011;75424;50.762;7.178;2024-03-23T05:08:19;7.25;;;2.80;;
85081;SDS011;75424;50.762;7.178;2024-03-23T05:10:45;6.82;;;2.92;;
85081;SDS011;75424;50.762;7.178;2024-03-23T05:13:10;13.20;;;2.60;;
85081;SDS011;75424;50.762;7.178;2024-03-23T05:15:36;7.93;;;2.67;;
85081;SDS011;75424;50.762;7.178;2024-03-23T05:18:02;6.35;;;2.63;;
85081;SDS011;75424;50.762;7.178;2024-03-23T05:20:28;5.38;;;2.42;;
85081;SDS011;75424;50.762;7.178;2024-03-23T05:22:54;7.82;;;2.60;;
85081;SDS011;75424;50.762;7.178;2024-03-23T05:25:20;8.20;;;3.08;;
85081;SDS011;75424;50.762;7.178;2024-03-23T05:27:45;9.05;;;2.70;;
85081;SDS011;75424;50.762;7.178;2024-03-23T05:30:11;7.13;;;2.00;;
85081;SDS011;75424;50.762;7.178;2024-03-23T05:32:36;7.32;;;2.55;;
85081;SDS011;75424;50.762;7.178;2024-03-23T05:35:03;7.03;;;2.65;;
85081;SDS011;75424;50.762;7.178;2024-03-23T05:37:29;8.43;;;2.17;;
85081;SDS011;75424;50.762;7.178;2024-03-23T05:39:56;6.88;;;1.90;;
85081;SDS011;75424;50.762;7.178;2024-03-23T05:42:21;9.52;;;1.95;;
85081;SDS011;75424;50.762;7.178;2024-03-23T05:44:46;8.55;;;2.20;;
85081;SDS011;75424;50.762;7.178;2024-03-23T05:47:12;10.05;;;2.60;;
85081;SDS011;75424;50.762;7.178;2024-03-23T05:49:42;6.80;;;2.13;;
85081;SDS011;75424;50.762;7.178;2024-03-23T05:52:08;5.47;;;1.70;;
85081;SDS011;75424;50.762;7.178;2024-03-23T05:54:34;9.63;;;1.88;;
85081;SDS011;75424;50.762;7.178;2024-03-23T05:56:59;4.70;;;1.70;;
85081;SDS011;75424;50.762;7.178;2024-03-23T05:59:25;7.15;;;1.67;;
85081;SDS011;75424;50.762;7.178;2024-03-23T06:01:52;8.65;;;1.80;;
85081;SDS011;75424;50.762;7.178;2024-03-23T06:04:17;7.30;;;2.50;;
85081;SDS011;75424;50.762;7.178;2024-03-23T06:06:42;15.25;;;2.63;;
85081;SDS011;75424;50.762;7.178;2024-03-23T06:09:08;6.45;;;2.00;;
85081;SDS011;75424;50.762;7.178;2024-03-23T06:11:33;7.33;;;2.17;;
85081;SDS011;75424;50.762;7.178;2024-03-23T06:13:58;5.38;;;1.90;;
85081;SDS011;75424;50.762;7.178;2024-03-23T06:16:24;4.75;;;1.60;;
85081;SDS011;75424;50.762;7.178;2024-03-23T06:18:50;9.27;;;2.03;;
85081;SDS011;75424;50.762;7.178;2024-03-23T06:21:16;4.55;;;1.30;;
85081;SDS011;75424;50.762;7.178;2024-03-23T06:23:41;10.18;;;1.98;;
85081;SDS011;75424;50.762;7.178;2024-03-23T06:26:07;8.30;;;1.77;;
85081;SDS011;75424;50.762;7.178;2024-03-23T06:28:33;4.50;;;1.70;;
85081;SDS011;75424;50.762;7.178;2024-03-23T06:30:59;8.77;;;1.50;;
85081;SDS011;75424;50.762;7.178;2024-03-23T06:33:24;12.00;;;2.58;;
85081;SDS011;75424;50.762;7.178;2024-03-23T06:35:50;5.22;;;1.60;;
85081;SDS011;75424;50.762;7.178;2024-03-23T06:38:17;6.72;;;2.00;;
85081;SDS011;75424;50.762;7.178;2024-03-23T06:40:42;6.68;;;1.90;;
85081;SDS011;75424;50.762;7.178;2024-03-23T06:43:12;6.32;;;1.83;;
85081;SDS011;75424;50.762;7.178;2024-03-23T06:45:40;8.32;;;2.00;;
85081;SDS011;75424;50.762;7.178;2024-03-23T06:48:06;9.23;;;2.00;;
85081;SDS011;75424;50.762;7.178;2024-03-23T06:50:33;6.18;;;2.00;;
85081;SDS011;75424;50.762;7.178;2024-03-23T06:52:58;7.18;;;1.95;;
85081;SDS011;75424;50.762;7.178;2024-03-23T06:55:24;9.70;;;2.03;;
85081;SDS011;75424;50.762;7.178;2024-03-23T06:57:51;8.43;;;2.65;;
85081;SDS011;75424;50.762;7.178;2024-03-23T07:00:17;6.25;;;2.30;;
85081;SDS011;75424;50.762;7.178;2024-03-23T07:02:42;9.07;;;2.55;;
85081;SDS011;75424;50.762;7.178;2024-03-23T07:05:09;4.97;;;2.20;;
85081;SDS011;75424;50.762;7.178;2024-03-23T07:07:35;12.65;;;3.10;;
85081;SDS011;75424;50.762;7.178;2024-03-23T07:10:01;7.93;;;2.83;;
85081;SDS011;75424;50.762;7.178;2024-03-23T07:12:26;8.50;;;2.22;;
85081;SDS011;75424;50.762;7.178;2024-03-23T07:14:51;7.18;;;2.75;;
85081;SDS011;75424;50.762;7.178;2024-03-23T07:17:17;6.87;;;2.67;;
85081;SDS011;75424;50.762;7.178;2024-03-23T07:19:43;10.52;;;2.88;;
85081;SDS011;75424;50.762;7.178;2024-03-23T07:22:08;8.63;;;2.63;;
85081;SDS011;75424;50.762;7.178;2024-03-23T07:24:34;11.10;;;3.35;;
85081;SDS011;75424;50.762;7.178;2024-03-23T07:26:59;6.40;;;2.38;;
85081;SDS011;75424;50.762;7.178;2024-03-23T07:29:25;5.90;;;2.38;;
85081;SDS011;75424;50.762;7.178;2024-03-23T07:31:50;8.45;;;3.03;;
85081;SDS011;75424;50.762;7.178;2024-03-23T07:34:15;7.95;;;2.85;;
85081;SDS011;75424;50.762;7.178;2024-03-23T07:36:41;5.13;;;2.80;;
85081;SDS011;75424;50.762;7.178;2024-03-23T07:39:06;5.72;;;2.80;;
85081;SDS011;75424;50.762;7.178;2024-03-23T07:41:33;9.50;;;2.88;;
85081;SDS011;75424;50.762;7.178;2024-03-23T07:43:58;8.90;;;3.13;;
85081;SDS011;75424;50.762;7.178;2024-03-23T07:46:24;7.30;;;3.42;;
85081;SDS011;75424;50.762;7.178;2024-03-23T07:48:50;6.82;;;3.63;;
85081;SDS011;75424;50.762;7.178;2024-03-23T07:51:17;9.20;;;3.30;;
85081;SDS011;75424;50.762;7.178;2024-03-23T07:53:47;10.10;;;3.17;;
85081;SDS011;75424;50.762;7.178;2024-03-23T07:56:13;11.20;;;3.75;;
85081;SDS011;75424;50.762;7.178;2024-03-23T07:58:43;9.10;;;3.42;;
85081;SDS011;75424;50.762;7.178;2024-03-23T08:01:11;9.77;;;4.03;;
85081;SDS011;75424;50.762;7.178;2024-03-23T08:03:38;12.13;;;4.18;;
85081;SDS011;75424;50.762;7.178;2024-03-23T08:06:09;10.88;;;3.97;;
85081;SDS011;75424;50.762;7.178;2024-03-23T08:08:38;11.40;;;4.28;;
85081;SDS011;75424;50.762;7.178;2024-03-23T08:11:05;10.35;;;4.38;;
85081;SDS011;75424;50.762;7.178;2024-03-23T08:13:30;11.30;;;3.95;;
85081;SDS011;75424;50.762;7.178;2024-03-23T08:15:56;10.65;;;4.50;;
85081;SDS011;75424;50.762;7.178;2024-03-23T08:18:22;7.53;;;4.20;;
85081;SDS011;75424;50.762;7.178;2024-03-23T08:20:54;7.15;;;4.00;;
85081;SDS011;75424;50.762;7.178;2024-03-23T08:23:24;9.75;;;3.30;;
85081;SDS011;75424;50.762;7.178;2024-03-23T08:25:50;7.35;;;2.97;;
85081;SDS011;75424;50.762;7.178;2024-03-23T08:28:15;4.57;;;2.30;;
85081;SDS011;75424;50.762;7.178;2024-03-23T08:30:41;6.53;;;1.50;;
85081;SDS011;75424;50.762;7.178;2024-03-23T08:33:06;4.40;;;1.55;;
85081;SDS011;75424;50.762;7.178;2024-03-23T08:35:31;2.58;;;0.98;;
85081;SDS011;75424;50.762;7.178;2024-03-23T08:37:56;4.38;;;1.15;;
85081;SDS011;75424;50.762;7.178;2024-03-23T08:40:22;5.73;;;1.30;;
85081;SDS011;75424;50.762;7.178;2024-03-23T08:42:47;9.05;;;1.25;;
85081;SDS011;75424;50.762;7.178;2024-03-23T08:45:12;3.20;;;0.90;;
85081;SDS011;75424;50.762;7.178;2024-03-23T08:47:38;1.48;;;0.75;;
85081;SDS011;75424;50.762;7.178;2024-03-23T08:50:03;7.18;;;1.70;;
85081;SDS011;75424;50.762;7.178;2024-03-23T08:52:29;2.33;;;1.05;;
85081;SDS011;75424;50.762;7.178;2024-03-23T08:54:54;3.28;;;1.23;;
85081;SDS011;75424;50.762;7.178;2024-03-23T08:57:21;3.50;;;1.25;;
85081;SDS011;75424;50.762;7.178;2024-03-23T08:59:47;3.63;;;1.63;;
85081;SDS011;75424;50.762;7.178;2024-03-23T09:02:13;5.57;;;2.25;;
85081;SDS011;75424;50.762;7.178;2024-03-23T09:04:38;5.20;;;2.00;;
85081;SDS011;75424;50.762;7.178;2024-03-23T09:07:03;7.25;;;2.47;;
85081;SDS011;75424;50.762;7.178;2024-03-23T09:09:29;7.88;;;3.22;;
85081;SDS011;75424;50.762;7.178;2024-03-23T09:11:55;4.53;;;2.60;;
85081;SDS011;75424;50.762;7.178;2024-03-23T09:14:21;4.75;;;2.72;;
85081;SDS011;75424;50.762;7.178;2024-03-23T09:16:49;5.00;;;3.38;;
85081;SDS011;75424;50.762;7.178;2024-03-23T09:19:15;7.53;;;3.60;;
85081;SDS011;75424;50.762;7.178;2024-03-23T09:21:41;9.13;;;3.55;;
85081;SDS011;75424;50.762;7.178;2024-03-23T09:24:07;6.60;;;3.60;;
85081;SDS011;75424;50.762;7.178;2024-03-23T09:26:32;10.30;;;5.10;;
85081;SDS011;75424;50.762;7.178;2024-03-23T09:28:57;11.50;;;4.25;;
85081;SDS011;75424;50.762;7.178;2024-03-23T09:31:22;12.30;;;5.78;;
85081;SDS011;75424;50.762;7.178;2024-03-23T09:33:48;9.35;;;4.38;;
85081;SDS011;75424;50.762;7.178;2024-03-23T09:36:13;9.57;;;5.17;;
85081;SDS011;75424;50.762;7.178;2024-03-23T09:38:38;8.77;;;4.80;;
85081;SDS011;75424;50.762;7.178;2024-03-23T09:41:08;8.40;;;4.32;;
85081;SDS011;75424;50.762;7.178;2024-03-23T09:43:34;10.48;;;3.67;;
85081;SDS011;75424;50.762;7.178;2024-03-23T09:46:00;7.22;;;2.88;;
85081;SDS011;75424;50.762;7.178;2024-03-23T09:48:27;7.40;;;2.03;;
85081;SDS011;75424;50.762;7.178;2024-03-23T09:50:53;5.70;;;2.28;;
85081;SDS011;75424;50.762;7.178;2024-03-23T09:53:18;5.22;;;2.20;;
85081;SDS011;75424;50.762;7.178;2024-03-23T09:55:44;5.95;;;1.88;;
85081;SDS011;75424;50.762;7.178;2024-03-23T09:58:13;5.55;;;1.83;;
85081;SDS011;75424;50.762;7.178;2024-03-23T10:00:40;7.88;;;2.00;;
85081;SDS011;75424;50.762;7.178;2024-03-23T10:03:05;7.25;;;1.60;;
85081;SDS011;75424;50.762;7.178;2024-03-23T10:05:31;6.82;;;2.03;;
85081;SDS011;75424;50.762;7.178;2024-03-23T10:07:59;5.88;;;1.88;;
85081;SDS011;75424;50.762;7.178;2024-03-23T10:10:25;4.57;;;1.90;;
85081;SDS011;75424;50.762;7.178;2024-03-23T10:12:51;8.57;;;1.80;;
85081;SDS011;75424;50.762;7.178;2024-03-23T10:15:20;6.70;;;1.60;;
85081;SDS011;75424;50.762;7.178;2024-03-23T10:17:47;3.28;;;1.52;;
85081;SDS011;75424;50.762;7.178;2024-03-23T10:20:13;3.90;;;1.63;;
85081;SDS011;75424;50.762;7.178;2024-03-23T10:22:38;4.88;;;2.00;;
85081;SDS011;75424;50.762;7.178;2024-03-23T10:25:08;4.30;;;1.67;;
85081;SDS011;75424;50.762;7.178;2024-03-23T10:27:34;4.68;;;1.42;;
85081;SDS011;75424;50.762;7.178;2024-03-23T10:30:12;8.95;;;2.30;;
85081;SDS011;75424;50.762;7.178;2024-03-23T10:32:42;7.07;;;2.03;;
85081;SDS011;75424;50.762;7.178;2024-03-23T10:35:17;7.88;;;1.50;;
85081;SDS011;75424;50.762;7.178;2024-03-23T10:37:44;5.30;;;1.83;;
85081;SDS011;75424;50.762;7.178;2024-03-23T10:40:14;4.10;;;1.60;;
85081;SDS011;75424;50.762;7.178;2024-03-23T10:42:40;1.42;;;1.33;;
85081;SDS011;75424;50.762;7.178;2024-03-23T10:45:06;3.60;;;1.63;;
85081;SDS011;75424;50.762;7.178;2024-03-23T10:47:34;1.98;;;0.73;;
85081;SDS011;75424;50.762;7.178;2024-03-23T10:50:00;4.05;;;0.93;;
85081;SDS011;75424;50.762;7.178;2024-03-23T10:52:26;1.30;;;0.40;;
85081;SDS011;75424;50.762;7.178;2024-03-23T10:54:51;0.70;;;0.30;;
85081;SDS011;75424;50.762;7.178;2024-03-23T10:57:17;0.43;;;0.43;;
85081;SDS011;75424;50.762;7.178;2024-03-23T10:59:46;0.40;;;0.25;;
85081;SDS011;75424;50.762;7.178;2024-03-23T11:02:18;0.93;;;0.30;;
85081;SDS011;75424;50.762;7.178;2024-03-23T11:04:44;1.15;;;0.40;;
85081;SDS011;75424;50.762;7.178;2024-03-23T11:07:32;1.15;;;0.40;;
85081;SDS011;75424;50.762;7.178;2024-03-23T11:09:58;1.02;;;0.50;;
85081;SDS011;75424;50.762;7.178;2024-03-23T11:17:22;1.98;;;0.63;;
85081;SDS011;75424;50.762;7.178;2024-03-23T11:22:37;4.30;;;1.00;;
85081;SDS011;75424;50.762;7.178;2024-03-23T11:27:40;2.78;;;1.20;;
85081;SDS011;75424;50.762;7.178;2024-03-23T11:32:37;6.82;;;1.90;;
85081;SDS011;75424;50.762;7.178;2024-03-23T11:35:03;4.00;;;1.77;;
85081;SDS011;75424;50.762;7.178;2024-03-23T11:37:28;3.67;;;1.73;;
85081;SDS011;75424;50.762;7.178;2024-03-23T11:39:54;5.70;;;2.72;;
85081;SDS011;75424;50.762;7.178;2024-03-23T11:42:19;3.85;;;1.50;;
85081;SDS011;75424;50.762;7.178;2024-03-23T11:44:46;3.50;;;1.35;;
85081;SDS011;75424;50.762;7.178;2024-03-23T11:47:12;4.18;;;1.00;;
85081;SDS011;75424;50.762;7.178;2024-03-23T11:49:37;6.28;;;1.27;;
85081;SDS011;75424;50.762;7.178;2024-03-23T11:52:06;3.30;;;0.95;;
85081;SDS011;75424;50.762;7.178;2024-03-23T11:54:32;2.72;;;1.25;;
85081;SDS011;75424;50.762;7.178;2024-03-23T11:56:58;3.30;;;1.27;;
85081;SDS011;75424;50.762;7.178;2024-03-23T12:01:56;4.80;;;1.52;;
85081;SDS011;75424;50.762;7.178;2024-03-23T12:04:28;2.55;;;1.30;;
85081;SDS011;75424;50.762;7.178;2024-03-23T12:07:09;1.45;;;1.30;;
85081;SDS011;75424;50.762;7.178;2024-03-23T12:09:39;4.82;;;1.77;;
85081;SDS011;75424;50.762;7.178;2024-03-23T12:12:15;4.65;;;2.35;;
85081;SDS011;75424;50.762;7.178;2024-03-23T12:14:44;6.75;;;2.38;;
85081;SDS011;75424;50.762;7.178;2024-03-23T12:17:25;6.72;;;2.63;;
85081;SDS011;75424;50.762;7.178;2024-03-23T12:19:50;5.68;;;2.85;;
85081;SDS011;75424;50.762;7.178;2024-03-23T12:22:16;8.05;;;2.45;;
85081;SDS011;75424;50.762;7.178;2024-03-23T12:24:45;4.63;;;2.10;;
85081;SDS011;75424;50.762;7.178;2024-03-23T12:27:11;4.65;;;2.65;;
85081;SDS011;75424;50.762;7.178;2024-03-23T12:29:36;4.80;;;2.10;;
85081;SDS011;75424;50.762;7.178;2024-03-23T12:32:04;5.30;;;2.53;;
85081;SDS011;75424;50.762;7.178;2024-03-23T12:34:29;4.50;;;2.28;;
85081;SDS011;75424;50.762;7.178;2024-03-23T12:36:55;4.60;;;2.40;;
85081;SDS011;75424;50.762;7.178;2024-03-23T12:39:21;2.95;;;2.30;;
85081;SDS011;75424;50.762;7.178;2024-03-23T12:41:46;3.17;;;1.55;;
85081;SDS011;75424;50.762;7.178;2024-03-23T12:44:12;4.90;;;2.58;;
85081;SDS011;75424;50.762;7.178;2024-03-23T12:46:38;6.65;;;2.30;;
85081;SDS011;75424;50.762;7.178;2024-03-23T12:49:04;3.65;;;2.08;;
85081;SDS011;75424;50.762;7.178;2024-03-23T12:51:30;5.28;;;2.10;;
85081;SDS011;75424;50.762;7.178;2024-03-23T12:53:56;3.17;;;1.45;;
85081;SDS011;75424;50.762;7.178;2024-03-23T12:56:21;1.35;;;0.50;;
85081;SDS011;75424;50.762;7.178;2024-03-23T12:58:47;2.35;;;0.55;;
85081;SDS011;75424;50.762;7.178;2024-03-23T13:01:16;2.55;;;0.70;;
85081;SDS011;75424;50.762;7.178;2024-03-23T13:03:46;1.83;;;0.70;;
85081;SDS011;75424;50.762;7.178;2024-03-23T13:06:12;0.32;;;0.32;;
85081;SDS011;75424;50.762;7.178;2024-03-23T13:08:37;1.43;;;0.67;;
85081;SDS011;75424;50.762;7.178;2024-03-23T13:11:02;2.28;;;0.20;;
85081;SDS011;75424;50.762;7.178;2024-03-23T13:13:28;1.73;;;0.60;;
85081;SDS011;75424;50.762;7.178;2024-03-23T13:15:53;1.02;;;0.60;;
85081;SDS011;75424;50.762;7.178;2024-03-23T13:18:18;1.42;;;0.80;;
85081;SDS011;75424;50.762;7.178;2024-03-23T13:20:44;0.57;;;0.57;;
85081;SDS011;75424;50.762;7.178;2024-03-23T13:23:09;1.13;;;0.77;;
85081;SDS011;75424;50.762;7.178;2024-03-23T13:25:34;1.50;;;0.60;;
85081;SDS011;75424;50.762;7.178;2024-03-23T13:28:00;0.98;;;0.60;;
85081;SDS011;75424;50.762;7.178;2024-03-23T13:30:26;1.20;;;0.80;;
85081;SDS011;75424;50.762;7.178;2024-03-23T13:32:51;1.40;;;0.85;;
85081;SDS011;75424;50.762;7.178;2024-03-23T13:35:16;1.50;;;0.88;;
85081;SDS011;75424;50.762;7.178;2024-03-23T13:37:42;1.83;;;0.60;;
85081;SDS011;75424;50.762;7.178;2024-03-23T13:40:08;2.40;;;1.00;;
85081;SDS011;75424;50.762;7.178;2024-03-23T13:42:33;1.35;;;0.95;;
85081;SDS011;75424;50.762;7.178;2024-03-23T13:44:59;1.93;;;0.77;;
85081;SDS011;75424;50.762;7.178;2024-03-23T13:47:24;1.73;;;0.80;;
85081;SDS011;75424;50.762;7.178;2024-03-23T13:49:49;1.60;;;0.75;;
85081;SDS011;75424;50.762;7.178;2024-03-23T13:52:15;2.05;;;1.08;;
85081;SDS011;75424;50.762;7.178;2024-03-23T13:54:41;1.70;;;0.93;;
85081;SDS011;75424;50.762;7.178;2024-03-23T13:57:11;1.52;;;1.10;;
85081;SDS011;75424;50.762;7.178;2024-03-23T13:59:36;1.45;;;0.90;;
85081;SDS011;75424;50.762;7.178;2024-03-23T14:02:02;2.80;;;1.52;;
85081;SDS011;75424;50.762;7.178;2024-03-23T14:04:27;2.58;;;0.93;;
85081;SDS011;75424;50.762;7.178;2024-03-23T14:06:52;1.92;;;0.75;;
85081;SDS011;75424;50.762;7.178;2024-03-23T14:09:18;5.28;;;1.90;;
85081;SDS011;75424;50.762;7.178;2024-03-23T14:11:48;3.33;;;1.58;;
85081;SDS011;75424;50.762;7.178;2024-03-23T14:14:14;3.75;;;1.15;;
85081;SDS011;75424;50.762;7.178;2024-03-23T14:16:43;1.38;;;1.20;;
85081;SDS011;75424;50.762;7.178;2024-03-23T14:19:08;3.53;;;1.23;;
85081;SDS011;75424;50.762;7.178;2024-03-23T14:21:34;2.75;;;1.60;;
85081;SDS011;75424;50.762;7.178;2024-03-23T14:24:03;5.85;;;1.73;;
85081;SDS011;75424;50.762;7.178;2024-03-23T14:26:29;5.50;;;1.63;;
85081;SDS011;75424;50.762;7.178;2024-03-23T14:28:54;4.13;;;2.10;;
85081;SDS011;75424;50.762;7.178;2024-03-23T14:31:19;3.03;;;1.30;;
85081;SDS011;75424;50.762;7.178;2024-03-23T14:33:45;2.40;;;1.35;;
85081;SDS011;75424;50.762;7.178;2024-03-23T14:36:15;2.03;;;0.85;;
85081;SDS011;75424;50.762;7.178;2024-03-23T14:38:41;3.60;;;0.90;;
85081;SDS011;75424;50.762;7.178;2024-03-23T14:41:07;2.50;;;0.80;;
85081;SDS011;75424;50.762;7.178;2024-03-23T14:43:32;0.95;;;0.43;;
85081;SDS011;75424;50.762;7.178;2024-03-23T14:46:13;1.85;;;0.60;;
85081;SDS011;75424;50.762;7.178;2024-03-23T14:48:41;1.13;;;0.50;;
85081;SDS011;75424;50.762;7.178;2024-03-23T14:51:07;4.50;;;1.08;;
85081;SDS011;75424;50.762;7.178;2024-03-23T14:53:34;3.75;;;1.60;;
85081;SDS011;75424;50.762;7.178;2024-03-23T14:56:01;1.25;;;0.73;;
85081;SDS011;75424;50.762;7.178;2024-03-23T14:58:27;2.45;;;0.77;;
85081;SDS011;75424;50.762;7.178;2024-03-23T15:00:53;1.45;;;0.75;;
85081;SDS011;75424;50.762;7.178;2024-03-23T15:03:24;2.35;;;0.85;;
85081;SDS011;75424;50.762;7.178;2024-03-23T15:05:55;0.60;;;0.50;;
85081;SDS011;75424;50.762;7.178;2024-03-23T15:08:22;1.48;;;0.40;;
85081;SDS011;75424;50.762;7.178;2024-03-23T15:10:47;2.25;;;0.63;;
85081;SDS011;75424;50.762;7.178;2024-03-23T15:13:13;0.93;;;0.60;;
85081;SDS011;75424;50.762;7.178;2024-03-23T15:15:39;1.67;;;0.70;;
85081;SDS011;75424;50.762;7.178;2024-03-23T15:18:08;0.50;;;0.50;;
85081;SDS011;75424;50.762;7.178;2024-03-23T15:20:34;1.50;;;0.80;;
85081;SDS011;75424;50.762;7.178;2024-03-23T15:23:02;3.78;;;1.10;;
85081;SDS011;75424;50.762;7.178;2024-03-23T15:25:28;4.05;;;1.45;;
85081;SDS011;75424;50.762;7.178;2024-03-23T15:27:53;1.67;;;0.88;;
85081;SDS011;75424;50.762;7.178;2024-03-23T15:30:19;0.85;;;0.50;;
85081;SDS011;75424;50.762;7.178;2024-03-23T15:32:45;2.00;;;0.73;;
85081;SDS011;75424;50.762;7.178;2024-03-23T15:35:10;0.93;;;0.50;;
85081;SDS011;75424;50.762;7.178;2024-03-23T15:37:36;1.10;;;0.63;;
85081;SDS011;75424;50.762;7.178;2024-03-23T15:40:01;1.90;;;0.80;;
85081;SDS011;75424;50.762;7.178;2024-03-23T15:42:26;2.15;;;0.80;;
85081;SDS011;75424;50.762;7.178;2024-03-23T15:44:51;2.55;;;0.85;;
85081;SDS011;75424;50.762;7.178;2024-03-23T15:47:17;1.30;;;0.80;;
85081;SDS011;75424;50.762;7.178;2024-03-23T15:49:43;1.65;;;0.85;;